Ludell, Kansas
Current Conditions -  °F | °C
As of 12:35 PM on Thursday 30 Oct 2014 (Local Time) from KCBK Reporting Station
Clear Clear  
Wind Chill: 63°   Ceiling: Unl
Heat Index: 63°   Visibility: 10mi
Dew Point: 34°   Wind: 16mph
Humidity: 34%   Direction: 360°N
Pressure: 30.31"   Gusts: 22mph
Location:  39.86°N, 100.96°W
Report Text: KCBK 301735Z AUTO 36014G19KT 10SM CLR 17/01 A3031 RMK AO2
Loading
Personal Weather Stations






























Interactive Weather Map
Tropical Storm Tracking
New forecast layout! Learn more

10-Day Weather Forecast

Advertisements
Track Severe Weather on mobile